createdAt,value
2023-04-13T00:01:32.859Z,6.57
2023-04-13T00:04:03.568Z,8.55
2023-04-13T00:06:32.454Z,7.75
2023-04-13T00:09:00.985Z,9.52
2023-04-13T00:11:29.455Z,8.32
2023-04-13T00:13:58.898Z,8.05
2023-04-13T00:16:31.545Z,5.00
2023-04-13T00:19:00.025Z,7.55
2023-04-13T00:21:28.405Z,6.93
2023-04-13T00:23:57.100Z,10.00
2023-04-13T00:26:25.782Z,7.53
2023-04-13T00:28:54.131Z,10.68
2023-04-13T00:31:23.452Z,9.32
2023-04-13T00:33:53.273Z,6.35
2023-04-13T00:36:24.541Z,12.43
2023-04-13T00:38:54.572Z,6.85
2023-04-13T00:41:22.955Z,7.10
2023-04-13T00:43:52.583Z,5.70
2023-04-13T00:46:22.531Z,9.25
2023-04-13T00:48:52.955Z,5.65
2023-04-13T00:51:21.574Z,6.13
2023-04-13T00:53:51.420Z,5.93
2023-04-13T00:56:23.032Z,5.40
2023-04-13T00:58:51.902Z,7.40
2023-04-13T01:01:20.946Z,6.50
2023-04-13T01:03:49.798Z,7.45
2023-04-13T01:06:29.786Z,6.78
2023-04-13T01:09:08.619Z,8.00
2023-04-13T01:11:43.671Z,9.57
2023-04-13T01:14:20.236Z,6.70
2023-04-13T01:16:56.853Z,7.35
2023-04-13T01:19:49.634Z,5.32
2023-04-13T01:22:22.858Z,11.50
2023-04-13T01:25:18.735Z,6.03
2023-04-13T01:27:54.292Z,8.40
2023-04-13T01:30:26.294Z,6.28
2023-04-13T01:32:55.323Z,7.30
2023-04-13T01:35:25.684Z,10.23
2023-04-13T01:37:54.941Z,7.80
2023-04-13T01:40:24.298Z,8.25
2023-04-13T01:42:54.306Z,11.52
2023-04-13T01:45:26.160Z,4.35
2023-04-13T01:48:04.696Z,4.75
2023-04-13T01:50:38.845Z,3.92
2023-04-13T01:53:12.842Z,7.53
2023-04-13T01:55:42.773Z,3.10
2023-04-13T01:58:15.490Z,3.33
2023-04-13T02:00:44.286Z,4.28
2023-04-13T02:03:13.567Z,2.30
2023-04-13T02:05:42.068Z,4.45
2023-04-13T02:08:10.822Z,3.47
2023-04-13T02:10:39.996Z,3.33
2023-04-13T02:13:09.571Z,3.63
2023-04-13T02:15:40.216Z,2.85
2023-04-13T02:18:08.971Z,3.60
2023-04-13T02:20:43.866Z,3.03
2023-04-13T02:23:14.976Z,2.83
2023-04-13T02:25:48.075Z,4.93
2023-04-13T02:28:18.014Z,2.47
2023-04-13T02:30:48.291Z,3.55
2023-04-13T02:33:17.056Z,2.85
2023-04-13T02:35:45.663Z,7.05
2023-04-13T02:38:14.003Z,3.70
2023-04-13T02:40:43.166Z,4.32
2023-04-13T02:43:12.296Z,4.18
2023-04-13T02:45:40.993Z,4.30
2023-04-13T02:48:10.816Z,5.10
2023-04-13T02:50:39.189Z,5.38
2023-04-13T02:53:07.925Z,5.13
2023-04-13T02:55:36.679Z,5.70
2023-04-13T02:58:06.353Z,6.28
2023-04-13T03:00:34.805Z,6.85
2023-04-13T03:03:04.119Z,5.55
2023-04-13T03:05:34.460Z,5.88
2023-04-13T03:08:05.345Z,7.82
2023-04-13T03:10:33.707Z,6.82
2023-04-13T03:13:02.243Z,7.38
2023-04-13T03:15:30.900Z,7.00
2023-04-13T03:18:00.650Z,6.57
2023-04-13T03:20:29.352Z,6.25
2023-04-13T03:23:01.706Z,6.80
2023-04-13T03:25:32.486Z,6.03
2023-04-13T03:28:02.053Z,6.72
2023-04-13T03:30:30.565Z,16.80
2023-04-13T03:32:59.016Z,7.10
2023-04-13T03:35:27.418Z,6.72
2023-04-13T03:37:56.145Z,6.60
2023-04-13T03:40:25.921Z,5.72
2023-04-13T03:42:54.330Z,5.43
2023-04-13T03:45:22.735Z,6.30
2023-04-13T03:47:51.343Z,5.70
2023-04-13T03:50:19.869Z,4.45
2023-04-13T03:52:48.255Z,7.72
2023-04-13T03:55:18.253Z,6.53
2023-04-13T03:57:48.008Z,5.25
2023-04-13T04:00:18.340Z,5.28
2023-04-13T04:02:47.278Z,4.55
2023-04-13T04:05:16.523Z,5.32
2023-04-13T04:07:44.988Z,5.13
2023-04-13T04:10:13.470Z,6.30
2023-04-13T04:12:41.796Z,4.70
2023-04-13T04:15:12.718Z,3.67
2023-04-13T04:17:41.134Z,4.32
2023-04-13T04:20:11.223Z,5.05
2023-04-13T04:22:39.582Z,5.30
2023-04-13T04:25:08.965Z,4.60
2023-04-13T04:27:38.329Z,4.45
2023-04-13T04:30:10.874Z,4.72
2023-04-13T04:32:41.768Z,3.45
2023-04-13T04:35:12.730Z,5.20
2023-04-13T04:37:41.307Z,4.07
2023-04-13T04:40:11.104Z,3.83
2023-04-13T04:42:39.473Z,5.13
2023-04-13T04:45:10.455Z,3.72
2023-04-13T04:47:43.274Z,2.65
2023-04-13T04:50:13.049Z,3.80
2023-04-13T04:52:42.578Z,2.47
2023-04-13T04:55:12.262Z,2.95
2023-04-13T04:57:40.974Z,2.72
2023-04-13T05:00:15.355Z,2.70
2023-04-13T05:02:46.594Z,3.65
2023-04-13T05:05:15.198Z,3.47
2023-04-13T05:07:45.025Z,2.60
2023-04-13T05:10:13.588Z,5.40
2023-04-13T05:12:41.961Z,2.60
2023-04-13T05:15:11.392Z,5.07
2023-04-13T05:17:41.828Z,2.80
2023-04-13T05:20:13.688Z,2.78
2023-04-13T05:22:42.596Z,4.30
2023-04-13T05:25:11.963Z,2.53
2023-04-13T05:27:40.299Z,2.58
2023-04-13T05:30:10.635Z,3.03
2023-04-13T05:32:39.081Z,2.28
2023-04-13T05:35:10.302Z,2.65
2023-04-13T05:37:40.400Z,5.28
2023-04-13T05:40:13.397Z,1.95
2023-04-13T05:42:43.830Z,2.15
2023-04-13T05:45:13.261Z,3.97
2023-04-13T05:47:41.633Z,2.03
2023-04-13T05:50:11.540Z,2.50
2023-04-13T05:52:41.282Z,3.10
2023-04-13T05:55:11.896Z,2.28
2023-04-13T05:57:40.855Z,2.08
2023-04-13T06:00:11.059Z,2.17
2023-04-13T06:02:40.451Z,3.25
2023-04-13T06:05:09.980Z,2.47
2023-04-13T06:07:38.408Z,2.47
2023-04-13T06:10:10.373Z,3.22
2023-04-13T06:12:38.833Z,3.53
2023-04-13T06:15:08.938Z,5.38
2023-04-13T06:17:37.396Z,1.95
2023-04-13T06:20:08.266Z,1.33
2023-04-13T06:22:36.891Z,1.40
2023-04-13T06:25:08.702Z,2.13
2023-04-13T06:27:37.537Z,2.53
2023-04-13T06:30:07.996Z,2.33
2023-04-13T06:32:36.420Z,3.53
2023-04-13T06:35:06.144Z,6.85
2023-04-13T06:37:36.270Z,2.72
2023-04-13T06:40:13.922Z,1.38
2023-04-13T06:42:44.292Z,2.13
2023-04-13T06:45:14.017Z,3.03
2023-04-13T06:47:42.465Z,1.38
2023-04-13T06:50:14.251Z,1.60
2023-04-13T06:52:44.365Z,2.47
2023-04-13T06:55:13.258Z,6.10
2023-04-13T06:57:43.575Z,1.13
2023-04-13T07:00:28.958Z,1.92
2023-04-13T07:02:59.868Z,1.30
2023-04-13T07:05:28.954Z,3.63
2023-04-13T07:07:57.451Z,0.88
2023-04-13T07:10:26.092Z,1.67
2023-04-13T07:12:56.000Z,1.30
2023-04-13T07:15:24.414Z,1.38
2023-04-13T07:17:52.849Z,1.35
2023-04-13T07:20:22.274Z,3.45
2023-04-13T07:22:50.771Z,1.25
2023-04-13T07:25:19.418Z,1.10
2023-04-13T07:27:47.806Z,1.55
2023-04-13T07:30:18.098Z,5.95
2023-04-13T07:32:46.789Z,1.80
2023-04-13T07:35:15.818Z,1.23
2023-04-13T07:37:44.620Z,1.27
2023-04-13T07:40:14.245Z,1.20
2023-04-13T07:42:42.687Z,2.78
2023-04-13T07:45:12.321Z,1.30
2023-04-13T07:47:42.121Z,1.60
2023-04-13T07:50:12.107Z,1.60
2023-04-13T07:52:40.554Z,1.50
2023-04-13T07:55:10.560Z,1.42
2023-04-13T07:57:39.064Z,1.50
2023-04-13T08:00:09.515Z,2.13
2023-04-13T08:02:38.902Z,6.95
2023-04-13T08:05:11.393Z,1.58
2023-04-13T08:07:39.976Z,1.45
2023-04-13T08:10:10.671Z,1.95
2023-04-13T08:12:39.107Z,2.20
2023-04-13T08:15:09.887Z,1.80
2023-04-13T08:17:39.018Z,7.47
2023-04-13T08:20:10.717Z,4.95
2023-04-13T08:22:39.405Z,3.53
2023-04-13T08:25:08.661Z,5.68
2023-04-13T08:27:37.088Z,2.42
2023-04-13T08:30:07.974Z,3.75
2023-04-13T08:32:36.463Z,3.80
2023-04-13T08:35:07.885Z,8.02
2023-04-13T08:37:39.606Z,11.57
2023-04-13T08:40:12.227Z,3.45
2023-04-13T08:42:40.767Z,2.70
2023-04-13T08:45:10.875Z,4.43
2023-04-13T08:47:41.182Z,2.30
2023-04-13T08:50:12.333Z,2.53
2023-04-13T08:52:42.174Z,2.35
2023-04-13T08:55:11.293Z,1.85
2023-04-13T08:57:41.702Z,1.30
2023-04-13T09:00:16.258Z,0.95
2023-04-13T09:03:00.264Z,1.20
2023-04-13T09:05:34.229Z,5.60
2023-04-13T09:08:08.129Z,1.40
2023-04-13T09:10:37.060Z,0.90
2023-04-13T09:13:05.646Z,0.88
2023-04-13T09:15:34.222Z,2.97
2023-04-13T09:18:10.093Z,1.40
2023-04-13T09:20:39.681Z,0.73
2023-04-13T09:23:17.175Z,0.70
2023-04-13T09:25:46.844Z,1.10
2023-04-13T09:28:19.733Z,0.90
2023-04-13T09:30:48.436Z,1.88
2023-04-13T09:33:18.292Z,1.00
2023-04-13T09:35:47.060Z,1.20
2023-04-13T09:38:17.363Z,1.60
2023-04-13T09:40:54.442Z,0.93
2023-04-13T09:43:23.082Z,0.80
2023-04-13T09:45:51.974Z,1.02
2023-04-13T09:48:22.768Z,1.05
2023-04-13T09:51:01.212Z,5.13
2023-04-13T09:53:42.633Z,1.42
2023-04-13T09:56:11.426Z,1.25
2023-04-13T09:58:44.833Z,2.33
2023-04-13T10:01:15.311Z,1.70
2023-04-13T10:03:45.175Z,1.05
2023-04-13T10:06:14.456Z,1.33
2023-04-13T10:08:46.373Z,2.03
2023-04-13T10:11:16.150Z,1.10
2023-04-13T10:13:52.559Z,0.80
2023-04-13T10:16:54.019Z,1.15
2023-04-13T10:19:25.820Z,2.88
2023-04-13T10:21:55.603Z,0.68
2023-04-13T10:24:25.735Z,2.53
2023-04-13T10:26:56.282Z,3.25
2023-04-13T10:29:32.820Z,1.92
2023-04-13T10:32:05.189Z,1.50
2023-04-13T10:34:35.868Z,1.23
2023-04-13T10:37:06.673Z,1.65
2023-04-13T10:39:37.827Z,3.17
2023-04-13T10:42:08.024Z,1.20
2023-04-13T10:44:44.801Z,3.03
2023-04-13T10:47:14.613Z,1.17
2023-04-13T10:49:44.670Z,1.50
2023-04-13T10:52:13.712Z,1.50
2023-04-13T10:54:44.756Z,1.00
2023-04-13T10:57:15.004Z,1.20
2023-04-13T11:02:19.005Z,1.38
2023-04-13T11:04:50.148Z,1.25
2023-04-13T11:07:22.930Z,1.73
2023-04-13T11:10:03.001Z,0.90
2023-04-13T11:12:32.042Z,1.10
2023-04-13T11:15:01.033Z,2.03
2023-04-13T11:17:29.690Z,0.98
2023-04-13T11:19:59.322Z,2.20
2023-04-13T11:22:29.090Z,2.30
2023-04-13T11:25:10.736Z,1.20
2023-04-13T11:27:39.207Z,2.70
2023-04-13T11:30:11.167Z,1.48
2023-04-13T11:32:44.249Z,1.30
2023-04-13T11:35:15.443Z,0.85
2023-04-13T11:37:47.058Z,0.85
2023-04-13T11:40:21.559Z,1.10
2023-04-13T11:42:53.518Z,1.38
2023-04-13T11:45:25.573Z,2.92
2023-04-13T11:47:54.640Z,7.88
2023-04-13T11:50:23.608Z,1.88
2023-04-13T11:52:56.897Z,0.68
2023-04-13T11:55:27.698Z,1.95
2023-04-13T11:57:56.804Z,0.90
2023-04-13T12:00:27.152Z,1.42
2023-04-13T12:05:32.457Z,1.10
2023-04-13T12:08:04.267Z,0.90
2023-04-13T12:10:41.321Z,1.95
2023-04-13T12:13:21.078Z,1.42
2023-04-13T12:16:06.030Z,2.65
2023-04-13T12:18:49.845Z,0.95
2023-04-13T12:21:21.031Z,1.98
2023-04-13T12:23:56.979Z,0.90
2023-04-13T12:27:16.218Z,0.75
2023-04-13T12:29:24.425Z,1.33
2023-04-13T12:31:52.865Z,0.95
2023-04-13T12:34:22.695Z,1.15
2023-04-13T12:36:51.579Z,1.40
2023-04-13T12:39:20.582Z,2.20
2023-04-13T12:41:50.564Z,2.03
2023-04-13T12:44:18.989Z,2.53
2023-04-13T12:46:47.502Z,3.72
2023-04-13T12:49:16.095Z,2.22
2023-04-13T12:51:44.505Z,1.38
2023-04-13T12:54:14.730Z,2.63
2023-04-13T12:56:43.298Z,3.25
2023-04-13T12:59:13.306Z,2.88
2023-04-13T13:01:41.766Z,3.05
2023-04-13T13:04:10.556Z,2.08
2023-04-13T13:06:39.196Z,3.80
2023-04-13T13:09:07.954Z,2.50
2023-04-13T13:11:36.869Z,10.13
2023-04-13T13:14:05.417Z,1.83
2023-04-13T13:16:35.625Z,1.50
2023-04-13T13:19:04.511Z,6.00
2023-04-13T13:21:34.162Z,2.33
2023-04-13T13:24:02.580Z,1.38
2023-04-13T13:26:41.738Z,1.67
2023-04-13T13:29:19.504Z,3.13
2023-04-13T13:31:49.460Z,2.00
2023-04-13T13:34:19.102Z,1.88
2023-04-13T13:36:47.874Z,1.58
2023-04-13T13:39:16.579Z,1.35
2023-04-13T13:41:45.012Z,13.93
2023-04-13T13:44:13.464Z,1.45
2023-04-13T13:46:41.991Z,0.93
2023-04-13T13:49:12.273Z,0.60
2023-04-13T13:51:40.692Z,2.03
2023-04-13T13:54:09.137Z,1.05
2023-04-13T13:56:37.646Z,1.92
2023-04-13T13:59:06.064Z,2.63
2023-04-13T14:01:34.576Z,0.80
2023-04-13T14:04:03.143Z,1.05
2023-04-13T14:06:33.426Z,1.05
2023-04-13T14:09:02.306Z,1.13
2023-04-13T14:11:31.470Z,0.90
2023-04-13T14:14:07.870Z,1.73
2023-04-13T14:16:43.112Z,1.23
2023-04-13T14:19:11.539Z,0.90
2023-04-13T14:21:42.544Z,1.60
2023-04-13T14:24:11.046Z,1.20
2023-04-13T14:26:39.390Z,2.25
2023-04-13T14:29:08.991Z,1.30
2023-04-13T14:31:37.416Z,1.92
2023-04-13T14:34:06.213Z,1.40
2023-04-13T14:36:34.596Z,1.15
2023-04-13T14:39:05.409Z,2.53
2023-04-13T14:41:33.918Z,1.02
2023-04-13T14:44:02.317Z,1.75
2023-04-13T14:46:30.831Z,2.55
2023-04-13T14:48:59.496Z,1.83
2023-04-13T14:51:29.123Z,4.65
2023-04-13T14:53:57.619Z,2.33
2023-04-13T14:56:27.519Z,1.88
2023-04-13T14:58:56.108Z,1.88
2023-04-13T15:01:25.016Z,1.55
2023-04-13T15:03:54.608Z,3.65
2023-04-13T15:06:25.348Z,2.63
2023-04-13T15:08:54.261Z,2.95
2023-04-13T15:11:23.110Z,1.77
2023-04-13T15:13:52.988Z,2.80
2023-04-13T15:16:21.476Z,2.42
2023-04-13T15:18:49.887Z,1.67
2023-04-13T15:21:18.323Z,1.48
2023-04-13T15:23:46.746Z,2.10
2023-04-13T15:26:18.773Z,2.45
2023-04-13T15:28:47.732Z,1.77
2023-04-13T15:31:17.560Z,1.85
2023-04-13T15:33:46.122Z,3.17
2023-04-13T15:36:16.476Z,2.78
2023-04-13T15:38:44.867Z,1.88
2023-04-13T15:41:13.391Z,2.50
2023-04-13T15:43:44.077Z,1.70
2023-04-13T15:46:12.690Z,1.40
2023-04-13T15:48:42.512Z,1.30
2023-04-13T15:51:11.501Z,2.03
2023-04-13T15:53:39.950Z,2.20
2023-04-13T15:56:10.143Z,1.83
2023-04-13T15:58:38.686Z,2.13
2023-04-13T16:01:10.070Z,2.90
2023-04-13T16:03:39.009Z,1.83
2023-04-13T16:06:10.712Z,2.38
2023-04-13T16:08:40.156Z,2.97
2023-04-13T16:11:08.507Z,2.25
2023-04-13T16:16:14.538Z,1.98
2023-04-13T16:18:43.155Z,3.65
2023-04-13T16:21:13.330Z,5.50
2023-04-13T16:23:42.726Z,2.00
2023-04-13T16:26:11.691Z,2.38
2023-04-13T16:28:40.694Z,2.33
2023-04-13T16:31:11.574Z,3.20
2023-04-13T16:33:40.705Z,3.05
2023-04-13T16:36:10.618Z,3.15
2023-04-13T16:38:42.861Z,3.83
2023-04-13T16:41:11.962Z,2.53
2023-04-13T16:43:40.574Z,2.55
2023-04-13T16:46:09.299Z,3.22
2023-04-13T16:48:37.726Z,2.17
2023-04-13T16:51:06.366Z,5.05
2023-04-13T16:53:34.907Z,3.33
2023-04-13T16:56:05.060Z,7.40
2023-04-13T16:58:34.027Z,3.13
2023-04-13T17:01:04.363Z,2.15
2023-04-13T17:03:33.195Z,4.00
2023-04-13T17:06:02.096Z,2.78
2023-04-13T17:08:31.758Z,3.20
2023-04-13T17:11:00.689Z,2.58
2023-04-13T17:13:31.480Z,2.28
2023-04-13T17:16:01.381Z,3.67
2023-04-13T17:18:30.663Z,3.28
2023-04-13T17:20:59.408Z,2.88
2023-04-13T17:23:30.208Z,3.90
2023-04-13T17:25:58.978Z,2.78
2023-04-13T17:28:29.154Z,2.65
2023-04-13T17:31:00.666Z,2.97
2023-04-13T17:33:29.486Z,1.80
2023-04-13T17:35:58.444Z,2.08
2023-04-13T17:38:27.768Z,2.95
2023-04-13T17:40:57.085Z,3.30
2023-04-13T17:43:26.068Z,4.40
2023-04-13T17:45:54.469Z,2.50
2023-04-13T17:48:25.976Z,3.45
2023-04-13T17:50:55.187Z,3.45
2023-04-13T17:53:24.079Z,5.13
2023-04-13T17:55:53.551Z,4.78
2023-04-13T17:58:22.863Z,4.30
2023-04-13T18:00:51.901Z,14.00
2023-04-13T18:03:21.516Z,12.00
2023-04-13T18:05:51.786Z,7.63
2023-04-13T18:08:20.591Z,8.85
2023-04-13T18:10:49.608Z,6.10
2023-04-13T18:13:18.173Z,9.52
2023-04-13T18:15:50.433Z,6.13
2023-04-13T18:18:24.634Z,5.70
2023-04-13T18:20:55.749Z,3.47
2023-04-13T18:23:25.939Z,4.32
2023-04-13T18:25:56.076Z,4.78
2023-04-13T18:28:25.546Z,2.85
2023-04-13T18:30:59.664Z,2.50
2023-04-13T18:33:31.551Z,3.40
2023-04-13T18:36:03.108Z,4.00
2023-04-13T18:38:34.296Z,2.70
2023-04-13T18:41:03.760Z,2.75
2023-04-13T18:43:33.551Z,2.80
2023-04-13T18:46:03.548Z,2.38
2023-04-13T18:48:32.311Z,3.95
2023-04-13T18:51:05.255Z,3.67
2023-04-13T18:53:33.992Z,3.42
2023-04-13T18:56:03.182Z,2.40
2023-04-13T18:58:33.129Z,2.70
2023-04-13T19:01:02.874Z,2.92
2023-04-13T19:03:35.655Z,3.10
2023-04-13T19:06:09.396Z,4.30
2023-04-13T19:08:39.173Z,2.53
2023-04-13T19:11:08.066Z,2.97
2023-04-13T19:13:36.963Z,2.78
2023-04-13T19:16:07.323Z,2.40
2023-04-13T19:18:36.911Z,3.08
2023-04-13T19:21:09.434Z,2.55
2023-04-13T19:23:40.385Z,2.65
2023-04-13T19:26:11.983Z,2.60
2023-04-13T19:28:42.616Z,2.28
2023-04-13T19:31:13.549Z,2.20
2023-04-13T19:33:43.246Z,2.85
2023-04-13T19:36:13.839Z,2.42
2023-04-13T19:38:45.866Z,3.80
2023-04-13T19:41:15.446Z,2.03
2023-04-13T19:43:44.558Z,1.88
2023-04-13T19:46:13.416Z,2.35
2023-04-13T19:48:46.806Z,2.80
2023-04-13T19:51:17.124Z,3.53
2023-04-13T19:53:47.513Z,2.42
2023-04-13T19:56:17.284Z,3.30
2023-04-13T19:58:46.196Z,2.58
2023-04-13T20:01:16.565Z,1.83
2023-04-13T20:03:47.460Z,2.50
2023-04-13T20:06:18.853Z,2.95
2023-04-13T20:08:48.824Z,3.33
2023-04-13T20:11:18.414Z,3.50
2023-04-13T20:13:48.460Z,4.10
2023-04-13T20:16:17.353Z,2.40
2023-04-13T20:18:46.756Z,2.95
2023-04-13T20:21:18.796Z,3.33
2023-04-13T20:23:48.974Z,2.80
2023-04-13T20:26:18.280Z,3.85
2023-04-13T20:28:47.229Z,7.20
2023-04-13T20:31:17.340Z,4.75
2023-04-13T20:33:46.073Z,3.58
2023-04-13T20:36:16.005Z,6.03
2023-04-13T20:38:45.180Z,2.60
2023-04-13T20:41:14.415Z,3.67
2023-04-13T20:43:43.255Z,3.10
2023-04-13T20:46:12.373Z,2.63
2023-04-13T20:51:13.739Z,3.55
2023-04-13T20:53:44.060Z,3.55
2023-04-13T20:56:12.788Z,3.67
2023-04-13T20:58:41.956Z,3.03
2023-04-13T21:01:10.384Z,2.50
2023-04-13T21:03:39.464Z,2.90
2023-04-13T21:06:08.370Z,3.60
2023-04-13T21:08:36.766Z,3.20
2023-04-13T21:11:06.703Z,3.33
2023-04-13T21:13:35.050Z,4.60
2023-04-13T21:16:03.717Z,4.10
2023-04-13T21:18:32.116Z,3.17
2023-04-13T21:21:00.477Z,3.90
2023-04-13T21:23:28.821Z,2.83
2023-04-13T21:25:57.294Z,3.53
2023-04-13T21:28:27.044Z,2.88
2023-04-13T21:30:55.588Z,3.45
2023-04-13T21:33:24.584Z,5.88
2023-04-13T21:35:52.955Z,3.28
2023-04-13T21:38:21.367Z,5.55
2023-04-13T21:40:49.932Z,3.97
2023-04-13T21:43:18.340Z,4.07
2023-04-13T21:45:48.046Z,4.25
2023-04-13T21:48:16.394Z,4.47
2023-04-13T21:50:44.754Z,3.55
2023-04-13T21:53:13.151Z,4.25
2023-04-13T21:55:41.534Z,4.45
2023-04-13T21:58:09.904Z,3.33
2023-04-13T22:00:38.538Z,3.88
2023-04-13T22:03:08.418Z,4.65
2023-04-13T22:05:36.845Z,5.65
2023-04-13T22:08:05.398Z,4.03
2023-04-13T22:10:33.785Z,4.88
2023-04-13T22:13:02.277Z,4.85
2023-04-13T22:15:30.687Z,4.47
2023-04-13T22:17:59.146Z,14.35
2023-04-13T22:20:28.955Z,5.72
2023-04-13T22:22:57.438Z,10.30
2023-04-13T22:25:27.959Z,7.45
2023-04-13T22:27:56.467Z,6.28
2023-04-13T22:30:24.860Z,7.75
2023-04-13T22:32:53.273Z,5.97
2023-04-13T22:35:21.817Z,5.95
2023-04-13T22:37:51.637Z,7.82
2023-04-13T22:40:20.241Z,8.60
2023-04-13T22:42:48.592Z,14.82
2023-04-13T22:45:17.010Z,6.35
2023-04-13T22:47:45.398Z,7.68
2023-04-13T22:50:14.041Z,6.40
2023-04-13T22:52:42.370Z,7.50
2023-04-13T22:55:12.442Z,6.68
2023-04-13T22:57:40.766Z,7.30
2023-04-13T23:00:11.043Z,5.82
2023-04-13T23:02:39.726Z,5.70
2023-04-13T23:05:09.647Z,6.40
2023-04-13T23:07:38.099Z,6.20
2023-04-13T23:10:08.503Z,6.45
2023-04-13T23:12:38.232Z,6.60
2023-04-13T23:15:08.452Z,5.97
2023-04-13T23:17:37.248Z,6.50
2023-04-13T23:20:07.727Z,18.10
2023-04-13T23:22:36.285Z,7.65
2023-04-13T23:25:05.212Z,6.05
2023-04-13T23:27:33.571Z,6.25
2023-04-13T23:30:03.648Z,5.38
2023-04-13T23:32:32.047Z,5.03
2023-04-13T23:35:01.014Z,5.40
2023-04-13T23:37:29.308Z,5.65
2023-04-13T23:39:58.012Z,16.20
2023-04-13T23:42:26.288Z,4.72
2023-04-13T23:44:54.670Z,5.38
2023-04-13T23:47:24.423Z,4.97
2023-04-13T23:49:54.237Z,4.65
2023-04-13T23:52:22.659Z,5.07
2023-04-13T23:54:51.060Z,5.45
2023-04-13T23:57:19.395Z,5.10
2023-04-13T23:59:47.709Z,4.40
